Time;durP1;ratioP1;P1;durP2;ratioP2;P2;SDS_P1;SDS_P2;PMS_P1;PMS_P2;Temp;Humidity;BMP_temperature;BMP_pressure;BME280_temperature;BME280_humidity;BME280_pressure;Samples;Min_cycle;Max_cycle;Signal;HPM_P1;HPM_P2
2021/10/05 00:01:41;;;;;;;7.35;2.83;;;;;;;;;;5060444;28;20024;-77
2021/10/05 00:04:06;;;;;;;3.78;2.83;;;;;;;;;;5070568;28;20446;-77
2021/10/05 00:06:32;;;;;;;9.85;3.78;;;;;;;;;;5070580;28;20028;-77
2021/10/05 00:08:58;;;;;;;6.05;2.90;;;;;;;;;;5052761;28;20044;-78
2021/10/05 00:11:23;;;;;;;10.90;3.17;;;;;;;;;;5058581;28;20055;-78
2021/10/05 00:13:49;;;;;;;5.78;3.15;;;;;;;;;;5070847;28;20032;-77
2021/10/05 00:16:14;;;;;;;7.05;3.40;;;;;;;;;;5066494;28;20028;-77
2021/10/05 00:18:40;;;;;;;5.43;2.97;;;;;;;;;;5054857;28;20024;-77
2021/10/05 00:21:06;;;;;;;8.30;3.75;;;;;;;;;;5054997;28;20357;-77
2021/10/05 00:23:32;;;;;;;11.27;3.70;;;;;;;;;;5054469;28;20166;-77
2021/10/05 00:25:57;;;;;;;9.95;3.63;;;;;;;;;;5054540;28;20017;-77
2021/10/05 00:28:23;;;;;;;8.25;3.72;;;;;;;;;;5036443;28;20033;-77
2021/10/05 00:30:49;;;;;;;8.82;3.42;;;;;;;;;;5057407;28;20107;-77
2021/10/05 00:33:14;;;;;;;9.95;3.30;;;;;;;;;;5069679;28;20021;-77
2021/10/05 00:35:40;;;;;;;7.38;3.63;;;;;;;;;;5054470;28;20021;-78
2021/10/05 00:38:05;;;;;;;8.75;3.80;;;;;;;;;;5054464;28;20024;-77
2021/10/05 00:40:31;;;;;;;10.50;3.67;;;;;;;;;;5054242;28;20083;-77
2021/10/05 00:42:56;;;;;;;7.03;3.70;;;;;;;;;;5074224;28;20056;-77
2021/10/05 00:45:21;;;;;;;10.18;3.53;;;;;;;;;;5073979;28;20413;-77
2021/10/05 00:47:47;;;;;;;10.15;4.00;;;;;;;;;;5071039;28;20599;-77
2021/10/05 00:50:15;;;;;;;5.38;3.53;;;;;;;;;;5055289;28;20056;-77
2021/10/05 00:52:43;;;;;;;5.40;4.15;;;;;;;;;;5071699;28;20024;-77
2021/10/05 00:55:09;;;;;;;8.85;3.85;;;;;;;;;;5073619;28;20028;-77
2021/10/05 00:57:35;;;;;;;9.73;4.05;;;;;;;;;;5053865;28;20393;-77
2021/10/05 01:00:01;;;;;;;8.25;3.92;;;;;;;;;;5053983;28;20025;-77
2021/10/05 01:02:26;;;;;;;10.95;4.43;;;;;;;;;;5053765;28;20028;-77
2021/10/05 01:04:52;;;;;;;9.68;3.92;;;;;;;;;;5053653;28;20424;-77
2021/10/05 01:07:19;;;;;;;8.82;4.68;;;;;;;;;;5054069;28;20465;-77
2021/10/05 01:09:45;;;;;;;7.57;5.03;;;;;;;;;;5053780;28;20028;-77
2021/10/05 01:12:12;;;;;;;8.02;4.28;;;;;;;;;;5069553;28;20032;-77
2021/10/05 01:14:37;;;;;;;8.15;4.82;;;;;;;;;;5073502;28;20288;-77
2021/10/05 01:17:05;;;;;;;10.30;4.47;;;;;;;;;;5073522;28;20085;-77
2021/10/05 01:19:30;;;;;;;9.70;4.15;;;;;;;;;;5073404;28;20100;-77
2021/10/05 01:21:56;;;;;;;12.27;4.50;;;;;;;;;;5059503;28;20122;-77
2021/10/05 01:24:23;;;;;;;8.48;4.90;;;;;;;;;;5054191;28;20036;-77
2021/10/05 01:26:51;;;;;;;10.65;4.68;;;;;;;;;;5053096;28;20362;-77
2021/10/05 01:29:19;;;;;;;13.98;5.03;;;;;;;;;;5053343;28;20115;-77
2021/10/05 01:31:47;;;;;;;9.10;4.82;;;;;;;;;;5064755;28;20500;-77
2021/10/05 01:34:14;;;;;;;7.82;4.55;;;;;;;;;;5073472;28;20098;-77
2021/10/05 01:36:40;;;;;;;9.43;4.90;;;;;;;;;;5073100;28;20024;-77
2021/10/05 01:39:19;;;;;;;12.15;5.00;;;;;;;;;;5073212;28;20314;-77
2021/10/05 01:41:45;;;;;;;11.93;5.32;;;;;;;;;;5060787;28;20469;-77
2021/10/05 01:44:11;;;;;;;13.07;5.00;;;;;;;;;;5053238;28;20025;-77
2021/10/05 01:46:36;;;;;;;12.13;5.85;;;;;;;;;;5052833;28;20032;-77
2021/10/05 01:49:02;;;;;;;11.32;5.30;;;;;;;;;;5053040;28;20025;-77
2021/10/05 01:51:27;;;;;;;9.88;5.45;;;;;;;;;;5062105;28;20024;-77
2021/10/05 01:53:53;;;;;;;14.70;6.13;;;;;;;;;;5072962;28;20434;-77
2021/10/05 01:56:18;;;;;;;12.82;6.15;;;;;;;;;;5062458;28;20059;-77
2021/10/05 01:58:44;;;;;;;11.93;5.70;;;;;;;;;;5052823;28;20035;-77
2021/10/05 02:01:09;;;;;;;13.40;6.20;;;;;;;;;;5059193;28;20020;-77
2021/10/05 02:03:34;;;;;;;15.50;6.15;;;;;;;;;;5059051;28;20060;-77
2021/10/05 02:06:01;;;;;;;11.07;6.05;;;;;;;;;;5052484;28;20037;-77
2021/10/05 02:08:27;;;;;;;12.50;6.25;;;;;;;;;;5052627;28;20029;-77
2021/10/05 02:10:52;;;;;;;10.57;6.05;;;;;;;;;;5052754;28;20074;-77
2021/10/05 02:13:18;;;;;;;10.88;6.22;;;;;;;;;;5052551;28;20103;-77
2021/10/05 02:15:43;;;;;;;9.68;5.70;;;;;;;;;;5052205;28;20091;-77
2021/10/05 02:18:08;;;;;;;11.35;5.85;;;;;;;;;;5052491;28;20030;-77
2021/10/05 02:20:34;;;;;;;12.45;6.35;;;;;;;;;;5053302;28;20025;-77
2021/10/05 02:23:00;;;;;;;11.25;5.80;;;;;;;;;;5072116;28;20031;-78
2021/10/05 02:25:26;;;;;;;13.50;6.32;;;;;;;;;;5071207;28;20028;-78
2021/10/05 02:27:52;;;;;;;13.23;6.13;;;;;;;;;;5052829;28;20025;-78
2021/10/05 02:30:17;;;;;;;11.15;5.82;;;;;;;;;;5052926;28;20021;-78
2021/10/05 02:32:43;;;;;;;10.73;6.15;;;;;;;;;;5070248;28;20044;-78
2021/10/05 02:35:10;;;;;;;10.77;6.20;;;;;;;;;;5052275;28;20032;-77
2021/10/05 02:37:36;;;;;;;14.30;6.25;;;;;;;;;;5052007;28;20423;-77
2021/10/05 02:40:05;;;;;;;12.63;6.18;;;;;;;;;;5051200;28;20025;-78
2021/10/05 02:42:31;;;;;;;10.80;6.63;;;;;;;;;;5066999;28;20036;-78
2021/10/05 02:44:56;;;;;;;16.38;7.28;;;;;;;;;;5071976;28;20476;-77
2021/10/05 02:47:23;;;;;;;13.13;6.85;;;;;;;;;;5072248;28;20467;-77
2021/10/05 02:49:49;;;;;;;11.10;7.68;;;;;;;;;;5071864;28;20059;-78
2021/10/05 02:52:17;;;;;;;16.13;7.70;;;;;;;;;;5068596;28;20385;-78
2021/10/05 02:54:46;;;;;;;12.73;8.05;;;;;;;;;;5071614;28;20043;-77
2021/10/05 02:57:12;;;;;;;13.05;7.55;;;;;;;;;;5054022;28;20029;-78
2021/10/05 02:59:45;;;;;;;16.95;8.68;;;;;;;;;;5068381;28;20710;-78
2021/10/05 03:02:11;;;;;;;13.30;8.00;;;;;;;;;;5068036;28;20040;-78
2021/10/05 03:04:37;;;;;;;13.70;7.97;;;;;;;;;;5068055;28;20021;-78
2021/10/05 03:07:03;;;;;;;19.88;8.80;;;;;;;;;;5068173;28;20025;-78
2021/10/05 03:09:29;;;;;;;16.38;8.45;;;;;;;;;;5068030;28;20030;-77
2021/10/05 03:11:54;;;;;;;16.73;8.60;;;;;;;;;;5067879;28;20024;-77
2021/10/05 03:14:20;;;;;;;16.55;9.85;;;;;;;;;;5068197;28;20067;-77
2021/10/05 03:16:46;;;;;;;15.32;8.57;;;;;;;;;;5067927;28;20558;-77
2021/10/05 03:19:12;;;;;;;20.48;8.75;;;;;;;;;;5067427;28;20029;-77
2021/10/05 03:21:38;;;;;;;18.33;9.68;;;;;;;;;;5067848;28;20039;-78
2021/10/05 03:24:04;;;;;;;16.98;8.63;;;;;;;;;;5067373;28;20031;-78
2021/10/05 03:26:30;;;;;;;15.93;8.32;;;;;;;;;;5067478;28;20476;-77
2021/10/05 03:28:55;;;;;;;15.48;8.88;;;;;;;;;;5067856;28;20080;-78
2021/10/05 03:31:20;;;;;;;17.75;8.70;;;;;;;;;;5067736;28;20112;-78
2021/10/05 03:33:46;;;;;;;17.13;8.18;;;;;;;;;;5076615;28;20476;-77
2021/10/05 03:36:13;;;;;;;15.75;8.00;;;;;;;;;;5062724;28;20017;-77
2021/10/05 03:38:39;;;;;;;15.07;7.53;;;;;;;;;;5048414;28;20033;-77
2021/10/05 03:41:05;;;;;;;18.85;8.23;;;;;;;;;;5067631;28;20025;-77
2021/10/05 03:43:32;;;;;;;16.08;8.40;;;;;;;;;;5067121;28;20035;-77
2021/10/05 03:45:57;;;;;;;13.00;7.88;;;;;;;;;;5067003;28;20025;-77
2021/10/05 03:48:23;;;;;;;15.90;8.30;;;;;;;;;;5067435;28;20448;-77
2021/10/05 03:50:50;;;;;;;14.30;8.35;;;;;;;;;;5066958;28;20032;-78
2021/10/05 03:53:18;;;;;;;16.17;8.35;;;;;;;;;;5067218;28;20384;-78
2021/10/05 03:55:55;;;;;;;14.20;8.68;;;;;;;;;;5072637;28;20352;-78
2021/10/05 03:58:22;;;;;;;14.65;8.38;;;;;;;;;;5087478;28;20043;-78
2021/10/05 04:00:48;;;;;;;17.70;8.75;;;;;;;;;;5068079;28;20046;-78
2021/10/05 04:03:14;;;;;;;17.40;8.93;;;;;;;;;;5067043;28;20024;-78
2021/10/05 04:05:39;;;;;;;19.08;9.13;;;;;;;;;;5065973;28;20427;-77
2021/10/05 04:08:06;;;;;;;14.00;9.02;;;;;;;;;;5067736;28;20020;-78
2021/10/05 04:10:32;;;;;;;17.88;9.30;;;;;;;;;;5056939;28;20087;-78
2021/10/05 04:12:58;;;;;;;17.83;9.38;;;;;;;;;;5053707;28;20025;-78
2021/10/05 04:15:23;;;;;;;20.55;9.68;;;;;;;;;;5053097;28;20116;-78
2021/10/05 04:17:49;;;;;;;16.88;9.73;;;;;;;;;;5053596;28;20052;-79
2021/10/05 04:20:15;;;;;;;18.85;9.93;;;;;;;;;;5052915;28;20088;-78
2021/10/05 04:22:40;;;;;;;17.15;9.75;;;;;;;;;;5053635;28;20432;-78
2021/10/05 04:25:07;;;;;;;18.25;9.27;;;;;;;;;;5052992;28;20030;-78
2021/10/05 04:27:33;;;;;;;20.08;9.80;;;;;;;;;;5053340;28;20098;-78
2021/10/05 04:29:59;;;;;;;15.68;10.32;;;;;;;;;;5053142;28;20029;-78
2021/10/05 04:32:25;;;;;;;14.75;9.98;;;;;;;;;;5053323;28;20047;-78
2021/10/05 04:34:50;;;;;;;22.23;10.38;;;;;;;;;;5052619;28;20055;-78
2021/10/05 04:37:16;;;;;;;16.55;8.90;;;;;;;;;;5053318;28;20385;-78
2021/10/05 04:39:41;;;;;;;16.10;8.60;;;;;;;;;;5052629;28;20163;-78
2021/10/05 04:42:08;;;;;;;16.55;8.00;;;;;;;;;;5053122;28;20538;-78
2021/10/05 04:44:34;;;;;;;14.18;7.88;;;;;;;;;;5052854;28;20361;-78
2021/10/05 04:46:59;;;;;;;12.32;6.90;;;;;;;;;;5052579;28;20044;-78
2021/10/05 04:49:25;;;;;;;14.45;7.28;;;;;;;;;;5053108;28;20024;-78
2021/10/05 04:51:50;;;;;;;12.55;6.18;;;;;;;;;;5052966;28;20107;-78
2021/10/05 04:54:16;;;;;;;12.98;5.70;;;;;;;;;;5052392;28;20064;-78
2021/10/05 04:56:41;;;;;;;12.65;5.55;;;;;;;;;;5054792;28;20025;-78
2021/10/05 04:59:07;;;;;;;10.35;6.30;;;;;;;;;;5052594;28;20073;-78
2021/10/05 05:01:32;;;;;;;12.60;6.07;;;;;;;;;;5053874;28;20531;-78
2021/10/05 05:03:58;;;;;;;10.93;6.57;;;;;;;;;;5048957;28;20029;-77
2021/10/05 05:06:23;;;;;;;12.25;7.50;;;;;;;;;;5052545;28;20385;-78
2021/10/05 05:08:49;;;;;;;12.18;7.57;;;;;;;;;;5052563;28;20052;-78
2021/10/05 05:11:15;;;;;;;13.38;7.70;;;;;;;;;;5053271;28;20027;-78
2021/10/05 05:13:40;;;;;;;13.18;7.70;;;;;;;;;;5051877;28;20068;-78
2021/10/05 05:16:06;;;;;;;11.90;8.23;;;;;;;;;;5052146;28;20068;-78
2021/10/05 05:18:32;;;;;;;16.38;7.70;;;;;;;;;;5052719;28;20072;-78
2021/10/05 05:20:58;;;;;;;12.82;7.57;;;;;;;;;;5051835;28;20029;-78
2021/10/05 05:23:24;;;;;;;12.50;7.03;;;;;;;;;;5051879;28;20078;-78
2021/10/05 05:25:49;;;;;;;11.77;7.07;;;;;;;;;;5052197;28;20021;-78
2021/10/05 05:28:14;;;;;;;13.68;7.32;;;;;;;;;;5052285;28;20025;-78
2021/10/05 05:30:40;;;;;;;11.65;6.88;;;;;;;;;;5051955;28;20479;-78
2021/10/05 05:33:06;;;;;;;11.57;7.05;;;;;;;;;;5053236;28;20025;-78
2021/10/05 05:35:32;;;;;;;11.43;6.72;;;;;;;;;;5052232;28;20029;-78
2021/10/05 05:37:58;;;;;;;12.43;6.28;;;;;;;;;;5051986;28;20076;-77
2021/10/05 05:40:24;;;;;;;13.25;6.50;;;;;;;;;;5052112;28;20064;-78
2021/10/05 05:42:49;;;;;;;10.38;4.43;;;;;;;;;;5049960;28;20052;-78
2021/10/05 05:45:15;;;;;;;9.48;4.32;;;;;;;;;;5051672;28;20056;-78
2021/10/05 05:47:40;;;;;;;9.82;4.50;;;;;;;;;;5051886;28;20031;-78
2021/10/05 05:50:07;;;;;;;9.48;4.00;;;;;;;;;;5051909;28;20031;-78
2021/10/05 05:52:33;;;;;;;8.02;3.65;;;;;;;;;;5051944;28;20056;-78
2021/10/05 05:54:59;;;;;;;6.40;3.53;;;;;;;;;;5051898;28;20024;-78
2021/10/05 05:57:25;;;;;;;6.60;3.65;;;;;;;;;;5051016;28;20362;-77
2021/10/05 05:59:50;;;;;;;7.57;3.30;;;;;;;;;;5051303;28;20095;-78
2021/10/05 06:02:16;;;;;;;7.18;3.60;;;;;;;;;;5052589;28;20082;-78
2021/10/05 06:04:41;;;;;;;4.13;2.67;;;;;;;;;;5052464;28;20491;-78
2021/10/05 06:07:07;;;;;;;7.80;3.20;;;;;;;;;;5052608;28;20504;-78
2021/10/05 06:09:35;;;;;;;4.63;2.55;;;;;;;;;;5051670;28;20059;-78
2021/10/05 06:12:04;;;;;;;6.15;2.45;;;;;;;;;;5052584;28;20149;-78
2021/10/05 06:14:29;;;;;;;5.80;2.47;;;;;;;;;;5051905;28;20025;-78
2021/10/05 06:16:56;;;;;;;5.88;2.42;;;;;;;;;;5051881;28;20531;-79
2021/10/05 06:19:22;;;;;;;3.17;2.03;;;;;;;;;;5051542;28;20052;-78
2021/10/05 06:21:47;;;;;;;5.28;2.08;;;;;;;;;;5050981;28;20053;-78
2021/10/05 06:24:13;;;;;;;6.40;1.80;;;;;;;;;;5051393;28;20431;-78
2021/10/05 06:26:38;;;;;;;4.50;1.70;;;;;;;;;;5051604;28;20087;-79
2021/10/05 06:29:04;;;;;;;5.80;1.52;;;;;;;;;;5051539;28;20021;-78
2021/10/05 06:31:29;;;;;;;3.35;1.38;;;;;;;;;;5052355;28;20028;-79
2021/10/05 06:33:55;;;;;;;4.68;1.08;;;;;;;;;;5052048;28;20021;-78
2021/10/05 06:36:20;;;;;;;3.92;1.00;;;;;;;;;;5052200;28;20162;-78
2021/10/05 06:38:46;;;;;;;4.03;1.17;;;;;;;;;;5053205;28;20036;-79
2021/10/05 06:41:11;;;;;;;3.03;1.00;;;;;;;;;;5054534;28;20370;-79
2021/10/05 06:43:36;;;;;;;3.90;1.13;;;;;;;;;;5053289;28;20028;-79
2021/10/05 06:46:03;;;;;;;3.70;1.10;;;;;;;;;;5053664;28;20029;-80
2021/10/05 06:48:29;;;;;;;4.07;0.90;;;;;;;;;;5054495;28;20045;-79
2021/10/05 06:50:55;;;;;;;2.40;0.80;;;;;;;;;;5054413;28;20025;-80
2021/10/05 06:53:21;;;;;;;4.28;0.88;;;;;;;;;;5053677;28;20048;-80
2021/10/05 06:55:47;;;;;;;5.25;0.98;;;;;;;;;;5059274;28;20199;-79
2021/10/05 06:58:14;;;;;;;1.73;0.70;;;;;;;;;;5074169;28;20041;-80
2021/10/05 07:00:40;;;;;;;4.38;1.00;;;;;;;;;;5056539;28;20082;-79
2021/10/05 07:03:06;;;;;;;4.03;0.80;;;;;;;;;;5055465;28;20381;-78
2021/10/05 07:05:32;;;;;;;4.78;0.85;;;;;;;;;;5055950;28;20409;-79
2021/10/05 07:07:58;;;;;;;2.85;0.70;;;;;;;;;;5053730;28;20025;-79
2021/10/05 07:10:25;;;;;;;4.70;0.80;;;;;;;;;;5053724;28;20029;-79
2021/10/05 07:12:51;;;;;;;3.92;0.77;;;;;;;;;;5052475;28;20039;-79
2021/10/05 07:15:17;;;;;;;1.85;0.95;;;;;;;;;;5050733;28;20111;-79
2021/10/05 07:17:44;;;;;;;4.15;0.60;;;;;;;;;;5050399;28;20052;-78
2021/10/05 07:20:10;;;;;;;3.80;0.65;;;;;;;;;;5050574;28;20074;-78
2021/10/05 07:22:36;;;;;;;4.82;0.70;;;;;;;;;;5050072;28;20041;-78
2021/10/05 07:25:03;;;;;;;2.28;0.60;;;;;;;;;;5049526;28;20051;-78
2021/10/05 07:27:28;;;;;;;1.77;0.60;;;;;;;;;;5050503;28;20021;-78
2021/10/05 07:29:54;;;;;;;1.98;0.50;;;;;;;;;;5048693;28;20025;-78
2021/10/05 07:32:20;;;;;;;1.75;0.60;;;;;;;;;;5050270;28;20021;-78
2021/10/05 07:34:45;;;;;;;4.68;0.80;;;;;;;;;;5066819;28;20035;-78
2021/10/05 07:37:11;;;;;;;2.70;0.60;;;;;;;;;;5050814;28;20086;-77
2021/10/05 07:39:37;;;;;;;2.85;0.70;;;;;;;;;;5050333;28;20154;-77
2021/10/05 07:42:03;;;;;;;2.85;0.80;;;;;;;;;;5049877;28;20036;-77
2021/10/05 07:44:33;;;;;;;2.95;0.60;;;;;;;;;;5049019;28;20044;-77
2021/10/05 07:46:59;;;;;;;3.17;1.00;;;;;;;;;;5052917;28;20028;-77
2021/10/05 07:49:25;;;;;;;2.10;0.60;;;;;;;;;;5053821;28;20024;-77
2021/10/05 07:51:51;;;;;;;2.92;0.60;;;;;;;;;;5053133;28;20497;-77
2021/10/05 07:54:17;;;;;;;1.17;0.60;;;;;;;;;;5043715;28;20059;-77
2021/10/05 07:56:42;;;;;;;0.93;0.50;;;;;;;;;;5067447;28;20586;-77
2021/10/05 07:59:08;;;;;;;2.00;0.63;;;;;;;;;;5055870;28;20467;-77
2021/10/05 08:01:36;;;;;;;2.33;0.60;;;;;;;;;;5053902;28;20397;-77
2021/10/05 08:04:02;;;;;;;1.95;0.80;;;;;;;;;;5053387;28;20033;-77
2021/10/05 08:06:27;;;;;;;1.20;0.60;;;;;;;;;;5053663;28;20090;-76
2021/10/05 08:08:53;;;;;;;2.47;0.70;;;;;;;;;;5053412;28;20492;-77
2021/10/05 08:11:19;;;;;;;1.85;0.45;;;;;;;;;;5053647;28;20401;-76
2021/10/05 08:13:45;;;;;;;1.40;0.52;;;;;;;;;;5051623;28;20029;-76
2021/10/05 08:16:11;;;;;;;2.78;0.90;;;;;;;;;;5053311;28;20484;-76
2021/10/05 08:18:40;;;;;;;1.58;0.70;;;;;;;;;;5052840;28;20041;-76
2021/10/05 08:21:05;;;;;;;1.88;0.63;;;;;;;;;;5053244;28;20107;-75
2021/10/05 08:23:30;;;;;;;1.02;0.40;;;;;;;;;;5052001;28;20421;-75
2021/10/05 08:25:56;;;;;;;1.90;0.70;;;;;;;;;;5053084;28;20037;-75
2021/10/05 08:28:21;;;;;;;2.13;0.40;;;;;;;;;;5053458;28;20013;-75
2021/10/05 08:30:48;;;;;;;1.23;0.50;;;;;;;;;;5053241;28;20358;-75
2021/10/05 08:33:14;;;;;;;0.95;0.40;;;;;;;;;;5053628;28;20021;-75
2021/10/05 08:35:40;;;;;;;2.00;0.50;;;;;;;;;;5053069;28;20033;-75
2021/10/05 08:38:05;;;;;;;0.90;0.60;;;;;;;;;;5052824;28;20503;-75
2021/10/05 08:40:33;;;;;;;1.45;0.55;;;;;;;;;;5053228;28;20025;-75
2021/10/05 08:43:00;;;;;;;1.00;0.57;;;;;;;;;;5052921;28;20032;-75
2021/10/05 08:45:25;;;;;;;1.75;0.32;;;;;;;;;;5052737;28;20086;-75
2021/10/05 08:47:51;;;;;;;0.98;0.40;;;;;;;;;;5052920;28;20472;-75
2021/10/05 08:50:17;;;;;;;1.48;0.50;;;;;;;;;;5052914;28;20033;-75
2021/10/05 08:52:44;;;;;;;2.13;0.40;;;;;;;;;;5052985;28;20032;-75
2021/10/05 08:55:10;;;;;;;0.90;0.43;;;;;;;;;;5052826;28;20044;-75
2021/10/05 08:57:35;;;;;;;1.88;0.50;;;;;;;;;;5052574;28;20056;-74
2021/10/05 09:00:04;;;;;;;0.90;0.40;;;;;;;;;;5052795;28;20025;-75
2021/10/05 09:02:54;;;;;;;1.38;0.52;;;;;;;;;;5052576;28;20115;-75
2021/10/05 09:05:20;;;;;;;1.58;0.60;;;;;;;;;;5041769;28;20107;-75
2021/10/05 09:07:48;;;;;;;1.85;0.60;;;;;;;;;;5052498;28;20075;-75
2021/10/05 09:10:19;;;;;;;2.03;0.60;;;;;;;;;;5052439;28;20047;-75
2021/10/05 09:12:45;;;;;;;1.17;0.63;;;;;;;;;;5052380;28;20417;-76
2021/10/05 09:15:12;;;;;;;2.90;0.73;;;;;;;;;;5052417;28;20075;-76
2021/10/05 09:17:38;;;;;;;1.63;0.60;;;;;;;;;;5052458;28;20051;-76
2021/10/05 09:20:17;;;;;;;1.15;0.68;;;;;;;;;;5052358;28;20032;-76
2021/10/05 09:22:42;;;;;;;1.55;0.50;;;;;;;;;;5052180;28;20033;-76
2021/10/05 09:25:10;;;;;;;4.00;0.75;;;;;;;;;;5052077;28;20029;-76
2021/10/05 09:27:47;;;;;;;2.70;0.73;;;;;;;;;;5052487;28;20199;-76
2021/10/05 09:30:18;;;;;;;1.45;0.68;;;;;;;;;;5052370;28;20033;-76
2021/10/05 09:32:56;;;;;;;1.65;0.50;;;;;;;;;;5052261;28;20601;-76
2021/10/05 09:35:22;;;;;;;0.80;0.60;;;;;;;;;;5052051;28;20493;-76
2021/10/05 09:37:48;;;;;;;1.80;0.70;;;;;;;;;;5051063;28;20033;-77
2021/10/05 09:40:14;;;;;;;2.33;0.80;;;;;;;;;;5048626;28;20036;-76
2021/10/05 09:42:43;;;;;;;1.10;0.75;;;;;;;;;;5050231;28;20403;-76
2021/10/05 09:45:18;;;;;;;1.42;0.73;;;;;;;;;;5050245;28;20597;-77
2021/10/05 09:47:43;;;;;;;1.83;0.60;;;;;;;;;;5051734;28;20024;-77
2021/10/05 09:50:15;;;;;;;1.30;0.70;;;;;;;;;;5051731;28;20439;-78
2021/10/05 09:52:46;;;;;;;1.15;0.50;;;;;;;;;;5051886;28;20025;-77
2021/10/05 09:55:13;;;;;;;3.13;0.40;;;;;;;;;;5052549;28;20040;-76
2021/10/05 09:57:38;;;;;;;1.15;0.40;;;;;;;;;;5069216;28;20036;-76
2021/10/05 10:00:06;;;;;;;0.77;0.50;;;;;;;;;;5050026;28;20694;-75
2021/10/05 10:02:34;;;;;;;3.67;0.65;;;;;;;;;;5045213;28;20025;-75
2021/10/05 10:05:01;;;;;;;1.20;0.40;;;;;;;;;;5046638;28;20016;-75
2021/10/05 10:07:29;;;;;;;0.95;0.50;;;;;;;;;;5042054;28;20037;-74
2021/10/05 10:09:54;;;;;;;0.60;0.60;;;;;;;;;;5050853;28;20702;-74
2021/10/05 10:12:21;;;;;;;2.35;0.50;;;;;;;;;;5051892;28;20024;-74
2021/10/05 10:14:49;;;;;;;2.03;0.70;;;;;;;;;;5067616;28;20483;-74
2021/10/05 10:17:33;;;;;;;1.30;0.60;;;;;;;;;;5057258;28;20021;-74
2021/10/05 10:19:58;;;;;;;1.73;0.60;;;;;;;;;;5052096;28;20025;-74
2021/10/05 10:22:24;;;;;;;0.60;0.40;;;;;;;;;;5051582;28;20085;-74
2021/10/05 10:24:57;;;;;;;1.13;0.50;;;;;;;;;;5050560;28;20112;-74
2021/10/05 10:27:23;;;;;;;;;;;;;;;;;;5052000;28;20124;-74
2021/10/05 10:29:51;;;;;;;3.58;0.63;;;;;;;;;;5051575;28;20011;-73
2021/10/05 10:32:21;;;;;;;3.38;0.50;;;;;;;;;;5050434;28;20060;-73
2021/10/05 10:35:00;;;;;;;0.40;0.40;;;;;;;;;;5068168;28;20032;-74
2021/10/05 10:37:26;;;;;;;0.65;0.57;;;;;;;;;;5052435;28;20073;-75
2021/10/05 10:39:54;;;;;;;2.22;0.70;;;;;;;;;;5050164;28;20029;-74
2021/10/05 10:42:28;;;;;;;0.60;0.52;;;;;;;;;;5050987;28;20500;-74
2021/10/05 10:44:54;;;;;;;2.10;0.90;;;;;;;;;;5050866;28;20048;-74
2021/10/05 10:47:21;;;;;;;1.60;0.60;;;;;;;;;;5050770;28;20033;-75
2021/10/05 10:49:54;;;;;;;2.53;1.02;;;;;;;;;;5050123;28;20112;-75
2021/10/05 10:52:28;;;;;;;2.35;0.88;;;;;;;;;;5050554;28;20037;-75
2021/10/05 10:54:54;;;;;;;2.35;0.95;;;;;;;;;;5050460;28;20078;-75
2021/10/05 10:57:42;;;;;;;2.45;0.68;;;;;;;;;;5050118;28;20067;-74
2021/10/05 11:00:22;;;;;;;2.05;0.70;;;;;;;;;;5049854;28;20119;-74
2021/10/05 11:02:50;;;;;;;2.25;1.00;;;;;;;;;;5052456;28;20032;-76
2021/10/05 11:05:21;;;;;;;0.95;0.70;;;;;;;;;;5058381;28;20020;-74
2021/10/05 11:07:48;;;;;;;0.93;0.50;;;;;;;;;;5050811;28;20487;-74
2021/10/05 11:10:13;;;;;;;2.90;0.93;;;;;;;;;;5050846;28;20317;-74
2021/10/05 11:12:53;;;;;;;1.70;0.70;;;;;;;;;;5050611;28;20106;-74
2021/10/05 11:15:32;;;;;;;1.52;0.80;;;;;;;;;;5053393;28;20017;-74
2021/10/05 11:18:03;;;;;;;0.82;0.63;;;;;;;;;;5050181;28;20353;-73
2021/10/05 11:20:28;;;;;;;1.75;0.80;;;;;;;;;;5052852;28;20082;-74
2021/10/05 11:22:54;;;;;;;2.22;0.80;;;;;;;;;;5054581;28;20105;-74
2021/10/05 11:25:19;;;;;;;1.83;0.70;;;;;;;;;;5054205;28;20116;-75
2021/10/05 11:27:45;;;;;;;1.05;0.60;;;;;;;;;;5054497;28;20025;-74
2021/10/05 11:30:11;;;;;;;1.40;0.90;;;;;;;;;;5054148;28;20037;-74
2021/10/05 11:32:37;;;;;;;1.65;0.70;;;;;;;;;;5067334;28;20028;-74
2021/10/05 11:35:03;;;;;;;1.10;0.77;;;;;;;;;;5054128;28;20032;-74
2021/10/05 11:37:28;;;;;;;1.98;0.75;;;;;;;;;;5054184;28;20048;-74
2021/10/05 11:39:56;;;;;;;1.52;0.75;;;;;;;;;;5054136;28;20372;-75
2021/10/05 11:42:24;;;;;;;1.40;0.80;;;;;;;;;;5054311;28;20025;-74
2021/10/05 11:45:03;;;;;;;0.88;0.63;;;;;;;;;;5054334;28;20036;-76
2021/10/05 11:47:30;;;;;;;2.05;0.60;;;;;;;;;;5053888;28;20021;-76
2021/10/05 11:50:07;;;;;;;0.90;0.63;;;;;;;;;;5054068;28;20021;-74
2021/10/05 11:52:42;;;;;;;0.95;0.70;;;;;;;;;;5053681;28;20033;-75
2021/10/05 11:55:08;;;;;;;1.95;1.40;;;;;;;;;;5053173;28;20024;-74
2021/10/05 11:57:34;;;;;;;1.17;0.80;;;;;;;;;;5065266;28;20044;-74
2021/10/05 12:00:06;;;;;;;2.22;1.00;;;;;;;;;;5053664;28;20358;-75
2021/10/05 12:02:36;;;;;;;2.05;1.00;;;;;;;;;;5055434;28;20021;-74
2021/10/05 12:05:02;;;;;;;2.50;1.00;;;;;;;;;;5073676;28;20035;-75
2021/10/05 12:07:28;;;;;;;1.48;1.20;;;;;;;;;;5066278;28;20028;-75
2021/10/05 12:10:04;;;;;;;2.00;1.20;;;;;;;;;;5053761;28;20024;-74
2021/10/05 12:12:37;;;;;;;2.25;1.60;;;;;;;;;;5053222;28;20048;-74
2021/10/05 12:15:07;;;;;;;4.03;1.75;;;;;;;;;;5053273;28;20411;-75
2021/10/05 12:17:32;;;;;;;3.58;2.38;;;;;;;;;;5053343;28;20472;-74
2021/10/05 12:20:04;;;;;;;3.05;2.38;;;;;;;;;;5053282;28;20024;-74
2021/10/05 12:22:31;;;;;;;5.72;2.60;;;;;;;;;;5053023;28;20419;-75
2021/10/05 12:25:17;;;;;;;4.00;2.78;;;;;;;;;;5053471;28;20029;-75
2021/10/05 12:27:48;;;;;;;5.22;2.80;;;;;;;;;;5050529;28;20037;-75
2021/10/05 12:30:23;;;;;;;5.70;3.72;;;;;;;;;;5051285;28;20024;-75
2021/10/05 12:32:56;;;;;;;7.40;4.75;;;;;;;;;;5053564;28;20100;-76
2021/10/05 12:35:37;;;;;;;11.25;5.63;;;;;;;;;;5066160;28;20054;-75
2021/10/05 12:38:09;;;;;;;8.98;6.72;;;;;;;;;;5059476;28;20033;-74
2021/10/05 12:40:57;;;;;;;12.02;8.23;;;;;;;;;;5059638;28;20464;-75
2021/10/05 12:43:24;;;;;;;11.68;8.63;;;;;;;;;;5052604;28;20033;-75
2021/10/05 12:45:55;;;;;;;13.38;9.65;;;;;;;;;;5054301;28;20025;-75
2021/10/05 12:48:35;;;;;;;13.27;10.25;;;;;;;;;;5049778;28;20021;-75
2021/10/05 12:51:10;;;;;;;14.35;10.82;;;;;;;;;;5052777;28;20025;-74
2021/10/05 12:53:36;;;;;;;21.05;12.65;;;;;;;;;;5044508;28;20068;-76
2021/10/05 12:56:02;;;;;;;19.52;12.77;;;;;;;;;;5049358;28;20027;-76
2021/10/05 12:58:28;;;;;;;19.80;13.48;;;;;;;;;;5049532;28;20044;-75
2021/10/05 13:00:53;;;;;;;19.05;13.55;;;;;;;;;;5041936;28;20029;-76
2021/10/05 13:03:20;;;;;;;21.10;14.00;;;;;;;;;;5050249;28;20455;-76
2021/10/05 13:05:45;;;;;;;23.20;14.43;;;;;;;;;;5045647;28;20099;-76
2021/10/05 13:08:11;;;;;;;21.58;14.88;;;;;;;;;;5048590;28;20029;-77
2021/10/05 13:10:36;;;;;;;25.67;15.60;;;;;;;;;;5041795;28;20075;-77
2021/10/05 13:13:02;;;;;;;19.92;14.27;;;;;;;;;;5032896;28;20044;-76
2021/10/05 13:15:29;;;;;;;21.25;15.23;;;;;;;;;;5050665;28;20439;-79
2021/10/05 13:17:55;;;;;;;21.90;15.23;;;;;;;;;;5051828;28;20055;-76
2021/10/05 13:20:22;;;;;;;21.77;15.07;;;;;;;;;;5047585;28;20033;-76
2021/10/05 13:22:49;;;;;;;24.70;15.32;;;;;;;;;;5052606;28;20028;-76
2021/10/05 13:25:14;;;;;;;20.63;15.27;;;;;;;;;;5050087;28;20029;-76
2021/10/05 13:27:40;;;;;;;24.08;14.98;;;;;;;;;;5046482;28;20507;-76
2021/10/05 13:30:08;;;;;;;25.90;15.57;;;;;;;;;;5044471;28;20049;-75
2021/10/05 13:32:34;;;;;;;22.35;15.73;;;;;;;;;;5047838;28;20072;-76
2021/10/05 13:35:01;;;;;;;22.80;14.82;;;;;;;;;;5055436;28;20061;-77
2021/10/05 13:37:27;;;;;;;23.77;14.85;;;;;;;;;;5052068;28;20104;-76
2021/10/05 13:39:54;;;;;;;24.25;15.30;;;;;;;;;;5051046;28;20021;-76
2021/10/05 13:42:19;;;;;;;22.30;14.13;;;;;;;;;;5051443;28;20078;-77
2021/10/05 13:44:45;;;;;;;23.27;15.60;;;;;;;;;;5052239;28;20029;-76
2021/10/05 13:47:10;;;;;;;23.70;16.27;;;;;;;;;;5051613;28;20162;-77
2021/10/05 13:49:36;;;;;;;24.67;15.98;;;;;;;;;;5054169;28;20039;-77
2021/10/05 13:52:02;;;;;;;23.92;15.13;;;;;;;;;;5051528;28;20032;-76
2021/10/05 13:54:28;;;;;;;21.58;14.27;;;;;;;;;;5052448;28;20134;-77
2021/10/05 13:56:53;;;;;;;23.85;14.93;;;;;;;;;;5058938;28;20508;-76
2021/10/05 13:59:21;;;;;;;22.42;15.20;;;;;;;;;;5053026;28;20040;-77
2021/10/05 14:01:47;;;;;;;22.10;15.57;;;;;;;;;;5068333;28;20021;-77
2021/10/05 14:04:12;;;;;;;23.98;15.57;;;;;;;;;;5060292;28;20081;-76
2021/10/05 14:06:37;;;;;;;20.90;14.73;;;;;;;;;;5061319;28;20453;-77
2021/10/05 14:09:05;;;;;;;24.08;15.68;;;;;;;;;;5051686;28;20098;-77
2021/10/05 14:11:33;;;;;;;24.20;15.57;;;;;;;;;;5058443;28;20111;-77
2021/10/05 14:14:02;;;;;;;21.38;14.43;;;;;;;;;;5058526;28;20082;-78
2021/10/05 14:16:27;;;;;;;28.60;14.80;;;;;;;;;;5065941;28;20511;-78
2021/10/05 14:18:53;;;;;;;20.88;14.63;;;;;;;;;;5056701;28;20032;-78
2021/10/05 14:21:19;;;;;;;22.52;14.63;;;;;;;;;;5064724;28;20094;-78
2021/10/05 14:23:48;;;;;;;18.55;14.52;;;;;;;;;;5058336;28;20060;-78
2021/10/05 14:26:15;;;;;;;20.02;14.07;;;;;;;;;;5054744;28;20029;-76
2021/10/05 14:28:41;;;;;;;25.25;13.90;;;;;;;;;;5052788;28;20075;-79
2021/10/05 14:31:07;;;;;;;17.77;12.98;;;;;;;;;;5061317;28;20473;-77
2021/10/05 14:33:32;;;;;;;19.75;13.55;;;;;;;;;;5054192;28;20090;-76
2021/10/05 14:35:58;;;;;;;17.95;13.68;;;;;;;;;;5063774;28;20081;-76